Time;durP1;ratioP1;P1;durP2;ratioP2;P2;SDS_P1;SDS_P2;PMS_P1;PMS_P2;Temp;Humidity;BMP_temperature;BMP_pressure;BME280_temperature;BME280_humidity;BME280_pressure;Samples;Min_cycle;Max_cycle;Signal;HPM_P1;HPM_P2
2021/03/15 00:00:41;;;;;;;3.30;0.30;;;5.30;99.90;;;;;;5084422;28;20183;-64
2021/03/15 00:03:07;;;;;;;2.40;0.57;;;5.30;99.90;;;;;;5093044;28;20232;-63
2021/03/15 00:05:33;;;;;;;3.20;1.55;;;5.30;99.90;;;;;;5089076;28;20196;-63
2021/03/15 00:07:58;;;;;;;2.00;0.47;;;5.30;99.90;;;;;;5099116;28;20200;-63
2021/03/15 00:10:24;;;;;;;1.80;0.20;;;5.30;99.90;;;;;;5087261;28;20181;-64
2021/03/15 00:12:50;;;;;;;2.70;1.37;;;5.30;99.90;;;;;;5086880;28;20227;-63
2021/03/15 00:15:17;;;;;;;2.97;0.73;;;5.20;99.90;;;;;;5088678;28;20195;-63
2021/03/15 00:17:43;;;;;;;2.58;1.05;;;5.20;99.90;;;;;;5085752;28;20180;-63
2021/03/15 00:20:12;;;;;;;3.83;3.33;;;5.20;99.90;;;;;;5087186;28;20578;-63
2021/03/15 00:22:38;;;;;;;1.90;0.30;;;5.20;99.90;;;;;;5132600;22;20216;-59
2021/03/15 00:25:06;;;;;;;4.07;1.67;;;5.20;99.90;;;;;;5093224;28;20542;-57
2021/03/15 00:27:31;;;;;;;2.10;0.60;;;5.20;99.90;;;;;;5095923;28;20191;-57
2021/03/15 00:29:57;;;;;;;2.60;1.00;;;5.20;99.90;;;;;;5088075;28;20178;-57
2021/03/15 00:32:22;;;;;;;1.87;0.30;;;5.20;99.90;;;;;;5097425;28;20216;-57
2021/03/15 00:34:48;;;;;;;1.80;0.20;;;5.20;99.90;;;;;;5100493;28;20191;-57
2021/03/15 00:37:14;;;;;;;1.80;0.20;;;5.10;99.90;;;;;;5101724;28;20195;-57
2021/03/15 00:39:40;;;;;;;1.80;0.20;;;5.20;99.90;;;;;;5099021;28;20219;-57
2021/03/15 00:42:06;;;;;;;2.17;0.50;;;5.10;99.90;;;;;;5083241;28;20458;-57
2021/03/15 00:44:32;;;;;;;1.90;0.40;;;5.10;99.90;;;;;;5103198;28;20509;-56
2021/03/15 00:46:57;;;;;;;2.93;0.80;;;5.10;99.90;;;;;;5074367;28;20203;-57
2021/03/15 00:49:23;;;;;;;1.80;0.20;;;5.20;99.90;;;;;;5099372;28;20237;-57
2021/03/15 00:51:48;;;;;;;4.73;1.80;;;5.20;99.90;;;;;;5097431;28;20204;-57
2021/03/15 00:54:14;;;;;;;1.80;0.20;;;5.20;99.90;;;;;;5091611;28;20335;-57
2021/03/15 00:56:39;;;;;;;8.67;2.30;;;5.20;99.90;;;;;;5098612;28;20207;-57
2021/03/15 00:59:05;;;;;;;2.00;0.50;;;5.20;99.90;;;;;;5097018;28;20363;-57
2021/03/15 01:01:30;;;;;;;4.30;0.50;;;5.20;99.90;;;;;;5093185;28;20908;-57
2021/03/15 01:03:56;;;;;;;1.80;0.20;;;5.30;99.90;;;;;;5095359;28;20176;-58
2021/03/15 01:06:22;;;;;;;1.80;0.30;;;5.30;99.90;;;;;;5096295;28;20175;-57
2021/03/15 01:08:47;;;;;;;4.83;2.00;;;5.30;99.90;;;;;;5097264;28;20176;-57
2021/03/15 01:11:13;;;;;;;5.17;2.07;;;5.20;99.90;;;;;;5093234;28;20192;-57
2021/03/15 01:13:38;;;;;;;3.00;0.70;;;5.20;99.90;;;;;;5093249;28;20634;-57
2021/03/15 01:16:04;;;;;;;1.80;0.20;;;5.20;99.90;;;;;;5096896;28;20595;-57
2021/03/15 01:18:31;;;;;;;1.80;0.20;;;5.20;99.90;;;;;;5094123;28;20674;-57
2021/03/15 01:20:56;;;;;;;3.83;2.03;;;5.20;99.90;;;;;;5102124;28;20176;-57
2021/03/15 01:23:22;;;;;;;2.80;0.90;;;5.20;99.90;;;;;;5110150;28;20293;-57
2021/03/15 01:25:48;;;;;;;1.80;0.20;;;5.10;99.90;;;;;;5118000;28;20187;-57
2021/03/15 01:28:15;;;;;;;2.73;1.07;;;5.20;99.90;;;;;;5103305;28;20212;-57
2021/03/15 01:30:43;;;;;;;2.80;1.00;;;5.20;99.90;;;;;;5101098;28;20546;-57
2021/03/15 01:33:09;;;;;;;2.63;1.20;;;5.10;99.90;;;;;;5099462;28;20698;-57
2021/03/15 01:35:34;;;;;;;2.10;0.77;;;5.10;99.90;;;;;;5094939;28;20188;-57
2021/03/15 01:38:01;;;;;;;1.90;0.43;;;5.10;99.90;;;;;;5102006;28;20564;-57
2021/03/15 01:40:28;;;;;;;1.80;0.20;;;5.10;99.90;;;;;;5098606;28;20229;-57
2021/03/15 01:42:53;;;;;;;1.90;0.40;;;5.10;99.90;;;;;;5097760;28;20282;-57
2021/03/15 01:45:19;;;;;;;2.20;0.67;;;5.10;99.90;;;;;;5092719;28;20399;-57
2021/03/15 01:47:46;;;;;;;3.33;1.23;;;5.10;99.90;;;;;;5077781;28;20180;-57
2021/03/15 01:50:14;;;;;;;5.32;2.65;;;5.00;99.90;;;;;;5093727;28;20451;-57
2021/03/15 01:52:40;;;;;;;1.80;0.20;;;5.00;99.90;;;;;;5093587;28;20324;-57
2021/03/15 01:55:09;;;;;;;2.28;0.82;;;5.00;99.90;;;;;;5094524;28;20186;-57
2021/03/15 01:57:35;;;;;;;3.25;2.10;;;4.90;99.90;;;;;;5098356;28;20199;-57
2021/03/15 02:00:01;;;;;;;2.20;0.82;;;4.90;99.90;;;;;;5097618;28;20186;-57
2021/03/15 02:02:27;;;;;;;1.80;0.20;;;4.90;99.90;;;;;;5083210;28;20721;-57
2021/03/15 02:04:53;;;;;;;8.52;3.35;;;5.00;99.90;;;;;;5090771;28;20216;-57
2021/03/15 02:07:19;;;;;;;2.70;1.00;;;5.00;99.90;;;;;;5093259;28;20202;-57
2021/03/15 02:09:45;;;;;;;1.80;0.20;;;5.00;99.90;;;;;;5095137;28;20182;-57
2021/03/15 02:12:45;;;;;;;2.93;1.30;;;5.00;99.90;;;;;;5101252;28;20204;-57
2021/03/15 02:15:25;;;;;;;2.00;0.50;;;5.00;99.90;;;;;;5100668;28;20429;-58
2021/03/15 02:17:54;;;;;;;2.20;0.88;;;5.00;99.90;;;;;;5089693;28;20541;-57
2021/03/15 02:20:34;;;;;;;1.80;0.20;;;5.00;99.90;;;;;;5094751;28;20208;-57
2021/03/15 02:23:17;;;;;;;4.10;1.77;;;5.00;99.90;;;;;;5090441;28;20203;-57
2021/03/15 02:25:52;;;;;;;1.80;0.20;;;5.00;99.90;;;;;;5097500;28;20171;-57
2021/03/15 02:28:37;;;;;;;4.60;1.50;;;5.00;99.90;;;;;;5093230;28;20282;-57
2021/03/15 02:31:22;;;;;;;1.83;0.20;;;5.00;99.90;;;;;;5092771;28;20184;-57
2021/03/15 02:34:16;;;;;;;1.80;0.20;;;5.00;99.90;;;;;;5095109;28;20211;-57
2021/03/15 02:36:45;;;;;;;2.00;0.82;;;5.00;99.90;;;;;;5105351;28;20193;-59
2021/03/15 02:39:18;;;;;;;2.45;0.68;;;5.10;99.90;;;;;;5098651;28;20314;-57
2021/03/15 02:41:45;;;;;;;1.80;0.20;;;5.10;99.90;;;;;;5099825;28;20606;-57
2021/03/15 02:44:13;;;;;;;5.90;2.80;;;5.10;99.90;;;;;;5091464;28;20194;-57
2021/03/15 02:46:42;;;;;;;2.00;0.50;;;5.10;99.90;;;;;;5097761;28;20646;-57
2021/03/15 02:49:11;;;;;;;3.70;1.83;;;5.10;99.90;;;;;;5100686;28;20630;-57
2021/03/15 02:51:38;;;;;;;2.47;1.00;;;5.20;99.90;;;;;;5093495;28;20212;-57
2021/03/15 02:54:07;;;;;;;1.80;0.20;;;5.20;99.90;;;;;;5098860;28;20176;-57
2021/03/15 02:56:38;;;;;;;4.30;1.20;;;5.10;99.90;;;;;;5098631;28;20188;-57
2021/03/15 02:59:06;;;;;;;1.80;0.20;;;5.10;99.90;;;;;;5096903;28;20351;-57
2021/03/15 03:01:32;;;;;;;2.10;0.65;;;5.20;99.90;;;;;;5102790;28;20284;-57
2021/03/15 03:03:59;;;;;;;2.40;0.85;;;5.20;99.90;;;;;;5102268;28;20256;-59
2021/03/15 03:06:28;;;;;;;1.80;0.20;;;5.20;99.90;;;;;;5090096;28;20188;-57
2021/03/15 03:08:56;;;;;;;2.40;0.35;;;5.20;99.90;;;;;;5100220;28;20788;-57
2021/03/15 03:11:24;;;;;;;1.80;0.20;;;5.20;99.90;;;;;;5095443;28;20211;-57
2021/03/15 03:13:52;;;;;;;1.80;0.20;;;5.20;99.90;;;;;;5099747;28;20184;-57
2021/03/15 03:16:19;;;;;;;2.00;0.30;;;5.20;99.90;;;;;;5104622;28;20188;-57
2021/03/15 03:18:48;;;;;;;7.88;0.40;;;5.20;99.90;;;;;;5103185;28;20561;-57
2021/03/15 03:21:14;;;;;;;8.50;2.15;;;5.10;99.90;;;;;;5097160;28;20759;-57
2021/03/15 03:23:41;;;;;;;7.10;3.72;;;5.10;99.90;;;;;;5102896;28;20239;-57
2021/03/15 03:26:07;;;;;;;1.80;0.20;;;5.00;99.90;;;;;;5095890;28;20576;-57
2021/03/15 03:28:34;;;;;;;1.90;0.50;;;5.00;99.90;;;;;;5095506;28;20192;-57
2021/03/15 03:31:02;;;;;;;2.15;0.70;;;5.00;99.90;;;;;;5097429;28;20442;-57
2021/03/15 03:33:28;;;;;;;1.80;0.20;;;4.90;99.90;;;;;;5097552;28;20706;-57
2021/03/15 03:35:54;;;;;;;1.80;0.20;;;4.90;99.90;;;;;;5097556;28;20189;-57
2021/03/15 03:38:19;;;;;;;4.10;1.90;;;4.90;99.90;;;;;;5100286;28;20195;-57
2021/03/15 03:40:46;;;;;;;1.90;0.40;;;4.90;99.90;;;;;;5097455;28;20541;-57
2021/03/15 03:43:12;;;;;;;5.05;0.70;;;4.90;99.90;;;;;;5096009;28;20574;-57
2021/03/15 03:45:38;;;;;;;1.80;0.20;;;4.90;99.90;;;;;;5096646;28;20176;-57
2021/03/15 03:48:04;;;;;;;2.57;1.23;;;4.90;99.90;;;;;;5098701;28;20187;-57
2021/03/15 03:50:33;;;;;;;1.95;0.35;;;4.80;99.90;;;;;;5100828;28;20196;-56
2021/03/15 03:53:14;;;;;;;2.47;0.95;;;4.90;99.90;;;;;;5098270;28;20291;-57
2021/03/15 03:55:53;;;;;;;1.80;0.20;;;4.80;99.90;;;;;;5090076;28;20528;-57
2021/03/15 03:58:22;;;;;;;1.80;0.20;;;4.80;99.90;;;;;;5090615;28;20902;-57
2021/03/15 04:00:52;;;;;;;1.90;0.30;;;4.80;99.90;;;;;;5092271;28;20220;-57
2021/03/15 04:03:18;;;;;;;2.00;0.50;;;4.80;99.90;;;;;;5093843;28;20183;-57
2021/03/15 04:05:52;;;;;;;3.75;1.95;;;4.80;99.90;;;;;;5093753;28;20180;-57
2021/03/15 04:08:25;;;;;;;1.80;0.20;;;4.80;99.90;;;;;;5098777;28;20621;-57
2021/03/15 04:10:52;;;;;;;3.50;1.95;;;4.80;99.90;;;;;;5094234;28;20561;-57
2021/03/15 04:13:22;;;;;;;1.90;0.20;;;4.70;99.90;;;;;;5095218;28;20176;-57
2021/03/15 04:15:48;;;;;;;1.90;0.45;;;4.70;99.90;;;;;;5096053;28;20179;-57
2021/03/15 04:18:17;;;;;;;1.83;0.30;;;4.70;99.90;;;;;;5095674;28;20288;-57
2021/03/15 04:20:44;;;;;;;1.80;0.20;;;4.80;99.90;;;;;;5098123;28;20477;-57
2021/03/15 04:23:14;;;;;;;5.05;2.42;;;4.80;99.90;;;;;;5101267;28;20299;-57
2021/03/15 04:25:41;;;;;;;2.63;1.05;;;4.70;99.90;;;;;;5092382;28;20184;-56
2021/03/15 04:28:08;;;;;;;1.80;0.20;;;4.70;99.90;;;;;;5090235;28;20328;-57
2021/03/15 04:30:35;;;;;;;4.03;2.03;;;4.70;99.90;;;;;;5089508;28;20582;-57
2021/03/15 04:33:01;;;;;;;1.83;0.20;;;4.70;99.90;;;;;;5096426;28;20693;-57
2021/03/15 04:35:30;;;;;;;1.80;0.20;;;4.70;99.90;;;;;;5084159;28;20230;-57
2021/03/15 04:37:58;;;;;;;1.85;0.20;;;4.60;99.90;;;;;;5098674;28;20183;-57
2021/03/15 04:40:26;;;;;;;3.20;1.60;;;4.60;99.90;;;;;;5092434;28;20266;-57
2021/03/15 04:42:52;;;;;;;1.88;0.20;;;4.60;99.90;;;;;;5091469;28;20385;-57
2021/03/15 04:45:19;;;;;;;2.67;0.90;;;4.60;99.90;;;;;;5095162;28;20190;-57
2021/03/15 04:47:46;;;;;;;1.90;0.30;;;4.60;99.90;;;;;;5094474;28;20179;-57
2021/03/15 04:50:14;;;;;;;1.88;0.20;;;4.50;99.90;;;;;;5101427;28;20204;-57
2021/03/15 04:52:44;;;;;;;3.03;1.35;;;4.50;99.90;;;;;;5093334;28;20223;-57
2021/03/15 04:55:10;;;;;;;2.67;1.10;;;4.50;99.90;;;;;;5095939;28;20184;-57
2021/03/15 04:57:37;;;;;;;5.80;1.85;;;4.50;99.90;;;;;;5091056;28;20180;-57
2021/03/15 05:00:06;;;;;;;5.60;1.95;;;4.50;99.90;;;;;;5097435;28;20199;-56
2021/03/15 05:02:33;;;;;;;2.47;0.77;;;4.50;99.90;;;;;;5092862;28;20243;-57
2021/03/15 05:05:00;;;;;;;7.05;1.80;;;4.60;99.90;;;;;;5091519;28;20171;-57
2021/03/15 05:07:26;;;;;;;2.38;0.82;;;4.60;99.90;;;;;;5072425;28;20176;-57
2021/03/15 05:09:53;;;;;;;1.90;0.20;;;4.60;99.90;;;;;;5098983;28;20800;-57
2021/03/15 05:12:20;;;;;;;2.13;0.63;;;4.60;99.90;;;;;;5098407;28;20318;-57
2021/03/15 05:14:46;;;;;;;1.83;0.30;;;4.60;99.90;;;;;;5093099;28;20201;-57
2021/03/15 05:17:12;;;;;;;2.95;1.08;;;4.60;99.90;;;;;;5095404;28;20208;-57
2021/03/15 05:19:39;;;;;;;1.90;0.20;;;4.60;99.90;;;;;;5095912;28;20284;-56
2021/03/15 05:22:07;;;;;;;1.90;0.20;;;4.60;99.90;;;;;;5095037;28;20457;-57
2021/03/15 05:24:34;;;;;;;1.90;0.20;;;4.60;99.90;;;;;;5101374;28;20201;-57
2021/03/15 05:27:01;;;;;;;2.15;0.52;;;4.60;99.90;;;;;;5103411;28;20191;-57
2021/03/15 05:29:28;;;;;;;1.88;0.20;;;4.70;99.90;;;;;;5106524;28;20168;-57
2021/03/15 05:31:54;;;;;;;2.35;0.68;;;4.70;99.90;;;;;;5118393;28;20196;-58
2021/03/15 05:34:22;;;;;;;2.00;0.57;;;4.70;99.90;;;;;;5115016;28;20187;-57
2021/03/15 05:36:50;;;;;;;2.65;0.75;;;4.70;99.90;;;;;;5108508;28;20210;-57
2021/03/15 05:39:16;;;;;;;1.88;0.28;;;4.70;99.90;;;;;;5096250;28;20283;-57
2021/03/15 05:41:59;;;;;;;1.80;0.20;;;4.70;99.90;;;;;;5097505;28;20242;-57
2021/03/15 05:44:39;;;;;;;6.07;1.58;;;4.70;99.90;;;;;;5092316;28;20191;-57
2021/03/15 05:47:45;;;;;;;1.83;0.30;;;4.70;99.90;;;;;;5095101;28;20534;-57
2021/03/15 05:50:50;;;;;;;7.53;4.45;;;4.70;99.90;;;;;;5092312;28;20183;-57
2021/03/15 05:53:36;;;;;;;2.17;0.47;;;4.70;99.90;;;;;;5090910;28;20534;-57
2021/03/15 05:56:33;;;;;;;6.25;2.85;;;4.60;99.90;;;;;;5096258;28;20841;-57
2021/03/15 05:59:24;;;;;;;1.90;0.30;;;4.50;99.90;;;;;;5083253;28;20211;-57
2021/03/15 06:02:12;;;;;;;4.75;2.10;;;4.50;99.90;;;;;;5094670;28;20197;-57
2021/03/15 06:05:16;;;;;;;2.45;1.05;;;4.50;99.90;;;;;;5098443;28;20194;-57
2021/03/15 06:07:44;;;;;;;1.90;0.20;;;4.60;99.90;;;;;;5106936;28;20187;-57
2021/03/15 06:10:13;;;;;;;1.90;0.20;;;4.60;99.90;;;;;;5091588;28;20180;-57
2021/03/15 06:13:10;;;;;;;1.90;0.20;;;4.60;99.90;;;;;;5102873;28;20207;-57
2021/03/15 06:15:38;;;;;;;1.98;0.35;;;4.60;99.90;;;;;;5089877;28;20199;-57
2021/03/15 06:18:05;;;;;;;7.75;4.20;;;4.60;99.90;;;;;;5092853;28;20203;-57
2021/03/15 06:20:32;;;;;;;6.38;2.35;;;4.60;99.90;;;;;;5094553;28;20186;-57
2021/03/15 06:23:03;;;;;;;3.97;1.73;;;4.50;99.90;;;;;;5115245;22;21576;-62
2021/03/15 06:25:29;;;;;;;2.30;0.50;;;4.50;99.90;;;;;;5069728;28;20647;-62
2021/03/15 06:27:56;;;;;;;2.00;0.43;;;4.50;99.90;;;;;;5079257;28;20220;-63
2021/03/15 06:30:23;;;;;;;4.50;2.22;;;4.50;99.90;;;;;;5075189;28;20287;-63
2021/03/15 06:32:50;;;;;;;5.93;1.85;;;4.50;99.90;;;;;;5075685;28;20232;-63
2021/03/15 06:35:17;;;;;;;3.28;1.30;;;4.60;99.90;;;;;;5076887;28;20165;-63
2021/03/15 06:37:43;;;;;;;3.80;2.53;;;4.60;99.90;;;;;;5069012;28;20184;-62
2021/03/15 06:40:10;;;;;;;7.00;3.20;;;4.50;99.90;;;;;;5073781;28;20685;-63
2021/03/15 06:42:36;;;;;;;2.80;1.13;;;4.50;99.90;;;;;;5080652;28;20186;-63
2021/03/15 06:45:03;;;;;;;6.65;3.70;;;4.50;99.90;;;;;;5068614;28;20258;-62
2021/03/15 06:47:29;;;;;;;2.00;0.45;;;4.50;99.90;;;;;;5078186;28;20185;-64
2021/03/15 06:49:55;;;;;;;2.13;0.35;;;4.50;99.90;;;;;;5071239;28;20188;-63
2021/03/15 06:52:21;;;;;;;3.80;1.07;;;4.50;99.90;;;;;;5067330;28;20185;-63
2021/03/15 06:54:47;;;;;;;7.73;2.53;;;4.50;99.90;;;;;;5077569;28;20490;-63
2021/03/15 06:57:14;;;;;;;4.73;2.20;;;4.50;99.90;;;;;;5078515;28;20180;-63
2021/03/15 06:59:57;;;;;;;3.20;1.50;;;4.50;99.90;;;;;;5070158;28;20205;-63
2021/03/15 07:02:28;;;;;;;6.82;1.75;;;4.50;99.90;;;;;;5080875;28;20173;-63
2021/03/15 07:05:10;;;;;;;2.90;0.85;;;4.60;99.90;;;;;;5075806;28;20274;-63
2021/03/15 07:07:38;;;;;;;6.13;1.60;;;4.60;99.90;;;;;;5049406;28;20177;-62
2021/03/15 07:10:21;;;;;;;4.70;2.15;;;4.60;99.90;;;;;;5073825;28;20234;-63
2021/03/15 07:12:47;;;;;;;3.00;1.20;;;4.70;99.90;;;;;;5080535;28;20180;-63
2021/03/15 07:15:13;;;;;;;3.40;1.70;;;4.70;99.90;;;;;;5068450;28;20181;-63
2021/03/15 07:17:39;;;;;;;2.30;0.73;;;4.60;99.90;;;;;;5071787;28;20188;-63
2021/03/15 07:20:06;;;;;;;2.30;0.77;;;4.60;99.90;;;;;;5071028;28;20204;-63
2021/03/15 07:22:32;;;;;;;2.10;0.55;;;4.70;99.90;;;;;;5063656;28;20236;-63
2021/03/15 07:25:09;;;;;;;1.90;0.20;;;4.70;99.90;;;;;;5079830;28;20667;-63
2021/03/15 07:27:37;;;;;;;2.00;0.40;;;4.70;99.90;;;;;;5073509;28;20517;-63
2021/03/15 07:30:26;;;;;;;2.88;1.23;;;4.70;99.90;;;;;;5071960;28;20185;-63
2021/03/15 07:32:52;;;;;;;3.53;1.27;;;4.70;99.90;;;;;;5062516;28;20219;-63
2021/03/15 07:35:26;;;;;;;2.63;0.60;;;4.70;99.90;;;;;;5072724;28;20204;-63
2021/03/15 07:37:52;;;;;;;1.90;0.20;;;4.70;99.90;;;;;;5072175;28;20680;-63
2021/03/15 07:40:30;;;;;;;1.90;0.20;;;4.70;99.90;;;;;;5060003;28;20268;-63
2021/03/15 07:43:01;;;;;;;2.30;0.93;;;4.80;99.90;;;;;;5070109;28;20423;-63
2021/03/15 07:45:37;;;;;;;2.80;1.48;;;4.80;99.90;;;;;;5070371;28;20184;-63
2021/03/15 07:48:08;;;;;;;1.90;0.20;;;4.80;99.90;;;;;;5064815;28;20199;-62
2021/03/15 07:50:34;;;;;;;3.28;1.33;;;4.80;99.90;;;;;;5084843;28;20585;-64
2021/03/15 07:53:01;;;;;;;1.90;0.20;;;4.80;99.90;;;;;;5076826;28;20221;-62
2021/03/15 07:55:41;;;;;;;1.90;0.20;;;4.80;99.90;;;;;;5080364;28;20268;-62
2021/03/15 07:58:26;;;;;;;1.90;0.20;;;4.80;99.90;;;;;;5070621;28;20169;-63
2021/03/15 08:00:54;;;;;;;2.67;0.65;;;4.80;99.90;;;;;;5076224;28;20192;-64
2021/03/15 08:03:21;;;;;;;1.98;0.40;;;4.80;99.90;;;;;;5074251;28;20196;-64
2021/03/15 08:05:48;;;;;;;2.90;0.98;;;4.90;99.90;;;;;;5067734;28;20203;-63
2021/03/15 08:08:14;;;;;;;2.50;0.77;;;4.80;99.90;;;;;;5072027;28;20184;-65
2021/03/15 08:10:44;;;;;;;2.73;1.03;;;4.90;99.90;;;;;;5078462;28;20206;-66
2021/03/15 08:13:12;;;;;;;1.90;0.20;;;4.90;99.90;;;;;;5084222;28;20947;-65
2021/03/15 08:15:40;;;;;;;1.90;0.20;;;4.90;99.90;;;;;;5058535;28;20188;-66
2021/03/15 08:18:08;;;;;;;1.90;0.20;;;5.00;99.90;;;;;;5078983;28;20187;-67
2021/03/15 08:20:41;;;;;;;5.32;1.08;;;5.00;99.90;;;;;;5087771;28;20507;-65
2021/03/15 08:23:07;;;;;;;1.90;0.20;;;4.90;99.90;;;;;;5071941;28;20212;-66
2021/03/15 08:25:33;;;;;;;2.40;1.02;;;5.00;99.90;;;;;;5078900;28;20191;-66
2021/03/15 08:28:03;;;;;;;2.40;0.98;;;5.00;99.90;;;;;;5076573;28;20712;-65
2021/03/15 08:30:31;;;;;;;1.90;0.20;;;5.00;99.90;;;;;;5070658;28;20185;-65
2021/03/15 08:32:58;;;;;;;2.90;1.10;;;5.10;99.90;;;;;;5073325;28;20745;-66
2021/03/15 08:35:25;;;;;;;2.10;0.40;;;5.00;99.90;;;;;;5075222;28;20179;-65
2021/03/15 08:37:53;;;;;;;2.53;0.70;;;5.10;99.90;;;;;;5071172;28;20545;-65
2021/03/15 08:40:37;;;;;;;3.65;1.40;;;5.00;99.90;;;;;;5073067;28;20740;-65
2021/03/15 08:43:18;;;;;;;1.90;0.20;;;5.10;99.90;;;;;;5074214;28;20508;-65
2021/03/15 08:45:53;;;;;;;2.40;0.77;;;5.20;99.90;;;;;;5071935;28;20187;-65
2021/03/15 08:48:39;;;;;;;3.08;0.55;;;5.20;99.90;;;;;;5073035;28;20173;-65
2021/03/15 08:51:32;;;;;;;2.63;1.75;;;5.20;99.90;;;;;;5080350;28;20536;-65
2021/03/15 08:53:58;;;;;;;1.90;0.30;;;5.30;99.90;;;;;;5074155;28;20231;-66
2021/03/15 08:56:27;;;;;;;3.38;1.17;;;5.40;99.90;;;;;;5073894;28;20272;-67
2021/03/15 08:58:54;;;;;;;2.15;0.65;;;5.50;99.90;;;;;;5076640;28;20227;-65
2021/03/15 09:01:24;;;;;;;2.20;0.82;;;5.40;99.90;;;;;;5071790;28;20701;-65
2021/03/15 09:04:00;;;;;;;2.00;0.35;;;5.50;99.90;;;;;;5067806;28;20205;-65
2021/03/15 09:06:48;;;;;;;3.65;2.90;;;5.50;99.90;;;;;;5061882;28;20230;-65
2021/03/15 09:09:14;;;;;;;2.10;0.73;;;5.60;99.90;;;;;;5043013;28;20184;-64
2021/03/15 09:11:44;;;;;;;2.10;0.40;;;5.60;99.90;;;;;;5071370;28;20654;-65
2021/03/15 09:16:58;;;;;;;2.50;1.02;;;5.80;99.90;;;;;;5071111;28;20215;-64
2021/03/15 09:19:34;;;;;;;2.10;0.40;;;5.90;99.90;;;;;;5071313;28;20228;-64
2021/03/15 09:22:04;;;;;;;2.00;0.40;;;5.90;99.90;;;;;;5073458;28;20191;-65
2021/03/15 09:24:34;;;;;;;1.90;0.20;;;6.10;99.90;;;;;;5063612;28;535984;-65
2021/03/15 09:27:01;;;;;;;2.50;0.85;;;6.20;99.90;;;;;;5075957;28;20188;-65
2021/03/15 09:29:30;;;;;;;1.90;0.20;;;6.20;99.90;;;;;;5073276;28;20180;-64
2021/03/15 09:32:06;;;;;;;1.95;0.30;;;6.30;99.90;;;;;;5086614;28;20441;-64
2021/03/15 09:34:33;;;;;;;2.20;0.47;;;6.30;99.90;;;;;;5078554;28;20227;-65
2021/03/15 09:37:00;;;;;;;1.90;0.20;;;6.30;99.90;;;;;;5080006;28;20593;-66
2021/03/15 09:39:31;;;;;;;3.23;1.67;;;6.40;99.90;;;;;;5077739;28;20667;-64
2021/03/15 09:41:58;;;;;;;2.10;0.40;;;6.30;99.90;;;;;;5074478;28;20422;-64
2021/03/15 09:44:31;;;;;;;1.90;0.20;;;6.30;99.90;;;;;;5084688;28;20234;-64
2021/03/15 09:46:59;;;;;;;1.90;0.20;;;6.40;99.90;;;;;;5079204;28;20452;-65
2021/03/15 09:49:51;;;;;;;1.93;0.30;;;6.50;99.90;;;;;;5070348;28;20507;-64
2021/03/15 09:52:22;;;;;;;2.10;0.50;;;6.60;99.90;;;;;;5068715;28;20513;-63
2021/03/15 09:54:50;;;;;;;3.20;1.27;;;6.70;99.90;;;;;;5083887;28;20449;-64
2021/03/15 09:57:17;;;;;;;1.90;0.20;;;6.80;99.90;;;;;;5069300;28;20739;-64
2021/03/15 09:59:43;;;;;;;2.00;0.40;;;6.80;99.90;;;;;;5052534;28;20458;-65
2021/03/15 10:02:09;;;;;;;1.90;0.30;;;6.80;99.90;;;;;;5057123;28;20484;-64
2021/03/15 10:04:39;;;;;;;1.90;0.20;;;6.80;99.90;;;;;;5071199;28;20208;-64
2021/03/15 10:07:11;;;;;;;2.43;0.57;;;6.80;99.90;;;;;;5077802;28;20180;-65
2021/03/15 10:09:40;;;;;;;1.90;0.20;;;6.80;99.90;;;;;;5074329;28;20442;-64
2021/03/15 10:12:17;;;;;;;1.90;0.20;;;6.80;99.90;;;;;;5075234;28;20434;-64
2021/03/15 10:14:43;;;;;;;4.43;3.40;;;6.90;99.90;;;;;;5079705;28;20454;-66
2021/03/15 10:17:08;;;;;;;1.90;0.30;;;6.90;99.90;;;;;;5085941;28;20508;-66
2021/03/15 10:19:34;;;;;;;1.90;0.20;;;7.00;99.90;;;;;;5086961;28;20208;-66
2021/03/15 10:22:18;;;;;;;2.00;0.30;;;7.00;99.90;;;;;;5086759;28;20264;-64
2021/03/15 10:24:46;;;;;;;2.10;0.70;;;7.10;99.90;;;;;;5079062;28;20571;-64
2021/03/15 10:27:24;;;;;;;1.90;0.20;;;7.10;99.90;;;;;;5074466;28;20467;-64
2021/03/15 10:29:53;;;;;;;1.90;0.20;;;7.20;99.90;;;;;;5078932;28;20507;-65
2021/03/15 10:32:25;;;;;;;1.90;0.20;;;7.20;99.90;;;;;;5078547;28;20433;-65
2021/03/15 10:35:02;;;;;;;2.20;0.50;;;7.20;99.90;;;;;;5078056;28;20465;-63
2021/03/15 10:37:32;;;;;;;1.90;0.30;;;7.20;99.90;;;;;;5073841;28;20430;-63
2021/03/15 10:39:58;;;;;;;2.00;0.30;;;7.30;99.90;;;;;;5060602;28;20467;-64
2021/03/15 10:42:25;;;;;;;2.77;1.37;;;7.30;99.90;;;;;;5055527;28;20511;-64
2021/03/15 10:44:51;;;;;;;4.93;1.13;;;7.30;99.90;;;;;;5077498;28;20470;-63
2021/03/15 10:47:34;;;;;;;2.30;0.30;;;7.30;99.90;;;;;;5077376;28;20505;-65
2021/03/15 10:50:01;;;;;;;1.90;0.20;;;7.40;99.90;;;;;;5081557;28;20525;-64
2021/03/15 10:52:34;;;;;;;1.90;0.20;;;7.50;99.90;;;;;;5078864;28;20434;-65
2021/03/15 10:55:20;;;;;;;2.50;1.23;;;7.50;99.90;;;;;;5079255;28;20455;-65
2021/03/15 10:58:18;;;;;;;1.90;0.20;;;7.60;99.90;;;;;;5077900;28;20430;-64
2021/03/15 11:00:46;;;;;;;1.90;0.20;;;7.50;99.90;;;;;;5020607;28;21001;-64
2021/03/15 11:03:22;;;;;;;1.90;0.30;;;7.50;99.90;;;;;;5081137;28;20489;-65
2021/03/15 11:06:01;;;;;;;1.90;0.20;;;7.50;99.90;;;;;;5074411;28;20444;-65
2021/03/15 11:08:27;;;;;;;1.90;0.20;;;7.50;99.90;;;;;;5069816;28;20438;-65
2021/03/15 11:10:52;;;;;;;2.00;0.33;;;7.50;99.90;;;;;;5079376;28;20427;-65
2021/03/15 11:13:21;;;;;;;2.10;0.30;;;7.50;99.90;;;;;;5074277;28;20209;-65
2021/03/15 11:15:48;;;;;;;1.90;0.20;;;7.50;99.90;;;;;;5076739;28;20196;-65
2021/03/15 11:18:16;;;;;;;2.00;0.43;;;7.50;99.90;;;;;;5068826;28;20518;-65
2021/03/15 11:20:49;;;;;;;2.37;0.60;;;7.50;99.90;;;;;;5075289;28;20435;-65
2021/03/15 11:23:36;;;;;;;2.90;0.97;;;7.60;99.90;;;;;;5072822;28;20469;-63
2021/03/15 11:26:03;;;;;;;2.33;0.63;;;7.70;99.90;;;;;;5071989;28;20967;-62
2021/03/15 11:28:31;;;;;;;1.90;0.30;;;7.70;99.90;;;;;;5074355;28;20434;-62
2021/03/15 11:30:59;;;;;;;4.27;0.90;;;7.70;99.90;;;;;;5066652;28;20522;-62
2021/03/15 11:33:27;;;;;;;2.00;0.30;;;7.80;99.90;;;;;;5072912;28;20458;-64
2021/03/15 11:35:53;;;;;;;1.90;0.20;;;7.90;99.90;;;;;;5067967;28;20434;-65
2021/03/15 11:38:24;;;;;;;1.90;0.20;;;7.90;99.90;;;;;;5082177;28;20782;-64
2021/03/15 11:40:50;;;;;;;1.90;0.20;;;7.90;99.90;;;;;;5073038;28;20581;-64
2021/03/15 11:43:16;;;;;;;1.90;0.30;;;8.00;99.90;;;;;;5077724;28;21161;-64
2021/03/15 11:45:41;;;;;;;1.90;0.20;;;8.10;99.90;;;;;;5082095;28;20461;-64
2021/03/15 11:48:08;;;;;;;2.97;0.63;;;8.10;99.90;;;;;;5078909;28;20465;-65
2021/03/15 11:50:36;;;;;;;2.27;0.40;;;8.10;99.90;;;;;;5078115;28;20184;-63
2021/03/15 11:53:03;;;;;;;1.90;0.20;;;8.10;99.90;;;;;;5072161;28;20458;-64
2021/03/15 11:55:30;;;;;;;1.97;0.30;;;8.20;99.90;;;;;;5063179;28;20423;-65
2021/03/15 11:57:55;;;;;;;2.53;1.03;;;8.20;99.90;;;;;;5074342;28;20430;-65
2021/03/15 12:00:22;;;;;;;1.90;0.20;;;8.20;99.90;;;;;;5081476;28;20469;-64
2021/03/15 12:02:50;;;;;;;1.90;0.27;;;8.20;99.90;;;;;;5055181;28;20543;-62
2021/03/15 12:05:17;;;;;;;1.90;0.20;;;8.20;99.90;;;;;;5072364;28;20447;-62
2021/03/15 12:07:43;;;;;;;2.47;0.90;;;8.30;99.90;;;;;;5084644;28;20419;-63
2021/03/15 12:10:11;;;;;;;4.10;0.60;;;8.30;99.90;;;;;;5074023;28;20446;-63
2021/03/15 12:12:37;;;;;;;3.63;0.40;;;8.30;99.90;;;;;;5080257;28;20439;-63
2021/03/15 12:15:06;;;;;;;1.90;0.20;;;8.20;99.90;;;;;;5073886;28;20525;-63
2021/03/15 12:17:32;;;;;;;3.60;0.50;;;8.30;99.90;;;;;;5075819;28;20434;-61
2021/03/15 12:20:00;;;;;;;1.90;0.20;;;8.40;99.90;;;;;;5081776;28;20475;-62
2021/03/15 12:22:26;;;;;;;1.90;0.20;;;8.50;99.90;;;;;;5086518;28;20501;-64
2021/03/15 12:24:51;;;;;;;2.07;0.37;;;8.60;99.90;;;;;;5088293;28;20549;-62
2021/03/15 12:27:17;;;;;;;2.20;0.30;;;8.60;99.90;;;;;;5086054;28;20465;-63
2021/03/15 12:29:42;;;;;;;2.10;0.50;;;8.70;99.90;;;;;;5087202;28;20284;-63
2021/03/15 12:32:08;;;;;;;1.90;0.43;;;8.70;99.90;;;;;;5081388;28;20189;-62
2021/03/15 12:34:34;;;;;;;2.73;1.03;;;8.60;99.90;;;;;;5093161;28;20209;-63
2021/03/15 12:37:02;;;;;;;2.47;0.60;;;8.50;99.90;;;;;;5084629;28;20229;-63
2021/03/15 12:39:28;;;;;;;3.40;2.60;;;8.40;99.90;;;;;;5091536;28;20828;-63
2021/03/15 12:41:53;;;;;;;2.40;0.80;;;8.40;99.90;;;;;;5086179;28;20439;-64
2021/03/15 12:44:19;;;;;;;1.97;0.40;;;8.40;99.90;;;;;;5088203;28;20212;-63
2021/03/15 12:46:44;;;;;;;2.67;1.17;;;8.30;99.90;;;;;;5086460;28;20496;-62
2021/03/15 12:49:11;;;;;;;2.03;0.40;;;8.40;99.90;;;;;;5085928;28;20271;-62
2021/03/15 12:51:37;;;;;;;3.90;1.33;;;8.40;99.90;;;;;;5071810;28;20199;-62
2021/03/15 12:54:04;;;;;;;2.13;0.47;;;8.50;99.90;;;;;;5081661;28;20461;-63
2021/03/15 12:56:29;;;;;;;1.93;0.27;;;8.50;99.90;;;;;;5084479;28;20226;-61
2021/03/15 12:58:55;;;;;;;1.90;0.30;;;8.60;99.90;;;;;;5076717;28;20474;-62
2021/03/15 13:01:21;;;;;;;1.90;0.20;;;8.50;99.90;;;;;;5079187;28;20254;-63
2021/03/15 13:03:47;;;;;;;2.60;1.10;;;8.60;99.90;;;;;;5081531;28;20232;-63
2021/03/15 13:06:15;;;;;;;1.90;0.20;;;8.60;99.90;;;;;;5077366;28;20437;-62
2021/03/15 13:08:43;;;;;;;5.50;1.57;;;8.70;99.90;;;;;;5083382;28;20189;-63
2021/03/15 13:11:09;;;;;;;5.57;1.87;;;8.80;99.90;;;;;;5084728;28;20446;-63
2021/03/15 13:13:43;;;;;;;2.00;0.30;;;8.80;99.90;;;;;;5083951;28;20461;-62